Time;durP1;ratioP1;P1;durP2;ratioP2;P2;SDS_P1;SDS_P2;PMS_P1;PMS_P2;Temp;Humidity;BMP_temperature;BMP_pressure;BME280_temperature;BME280_humidity;BME280_pressure;Samples;Min_cycle;Max_cycle;Signal;HPM_P1;HPM_P2
2023/09/26 00:01:39;;;;;;;;;;;15.70;99.90;;;;;;5114043;28;20078;-41
2023/09/26 00:04:05;;;;;;;;;;;15.70;99.90;;;;;;5114056;28;20036;-42
2023/09/26 00:06:31;;;;;;;;;;;15.60;99.90;;;;;;5113996;28;19924;-41
2023/09/26 00:08:56;;;;;;;;;;;15.60;99.90;;;;;;5112957;28;19924;-41
2023/09/26 00:11:22;;;;;;;;;;;15.70;99.90;;;;;;5114073;28;19984;-42
2023/09/26 00:13:49;;;;;;;;;;;15.70;99.90;;;;;;5114062;28;19924;-42
2023/09/26 00:16:14;;;;;;;;;;;15.70;99.90;;;;;;5113977;28;20026;-41
2023/09/26 00:18:42;;;;;;;;;;;15.70;99.90;;;;;;5115126;28;20394;-41
2023/09/26 00:21:08;;;;;;;;;;;15.70;99.90;;;;;;5117396;28;19927;-41
2023/09/26 00:23:36;;;;;;;;;;;15.70;99.90;;;;;;5117429;28;19967;-41
2023/09/26 00:26:07;;;;;;;;;;;15.70;99.90;;;;;;5117476;28;19928;-41
2023/09/26 00:28:33;;;;;;;;;;;15.70;99.90;;;;;;5117820;28;19976;-41
2023/09/26 00:31:03;;;;;;;;;;;15.70;99.90;;;;;;5117713;28;19923;-42
2023/09/26 00:33:29;;;;;;;;;;;15.70;99.90;;;;;;5117448;28;19924;-41
2023/09/26 00:35:55;;;;;;;;;;;15.70;99.90;;;;;;5117373;28;19930;-42
2023/09/26 00:38:21;;;;;;;;;;;15.70;99.90;;;;;;5117118;28;19928;-42
2023/09/26 00:40:46;;;;;;;;;;;15.70;99.90;;;;;;5117651;28;19977;-41
2023/09/26 00:43:21;;;;;;;;;;;15.70;99.90;;;;;;5117298;28;19932;-41
2023/09/26 00:45:50;;;;;;;;;;;15.70;99.90;;;;;;5117300;28;20022;-42
2023/09/26 00:48:16;;;;;;;;;;;15.60;99.90;;;;;;5117092;28;20402;-41
2023/09/26 00:50:43;;;;;;;;;;;15.60;99.90;;;;;;5117180;27;20012;-42
2023/09/26 00:53:08;;;;;;;;;;;15.60;99.90;;;;;;5117134;28;19976;-41
2023/09/26 00:55:34;;;;;;;;;;;15.60;99.90;;;;;;5116196;28;19984;-41
2023/09/26 00:58:01;;;;;;;;;;;15.60;99.90;;;;;;5116235;28;20331;-42
2023/09/26 01:00:26;;;;;;;;;;;15.60;99.90;;;;;;5117071;28;20010;-41
2023/09/26 01:02:52;;;;;;;;;;;15.60;99.90;;;;;;5116836;28;19935;-42
2023/09/26 01:05:18;;;;;;;;;;;15.60;99.90;;;;;;5116714;28;19969;-42
2023/09/26 01:07:43;;;;;;;;;;;15.60;99.90;;;;;;5116942;28;19927;-42
2023/09/26 01:10:12;;;;;;;;;;;15.60;99.90;;;;;;5116827;28;20351;-41
2023/09/26 01:12:38;;;;;;;;;;;15.60;99.90;;;;;;5116791;28;19969;-41
2023/09/26 01:15:05;;;;;;;;;;;15.60;99.90;;;;;;5116577;28;20374;-41
2023/09/26 01:17:32;;;;;;;;;;;15.60;99.90;;;;;;5116565;28;19931;-42
2023/09/26 01:19:57;;;;;;;;;;;15.50;99.90;;;;;;5116327;28;20322;-41
2023/09/26 01:22:25;;;;;;;;;;;15.60;99.90;;;;;;5116595;28;19936;-41
2023/09/26 01:24:51;;;;;;;;;;;15.50;99.90;;;;;;5116569;27;20264;-41
2023/09/26 01:27:17;;;;;;;;;;;15.50;99.90;;;;;;5116376;28;19924;-41
2023/09/26 01:29:43;;;;;;;;;;;15.50;99.90;;;;;;5115911;28;19924;-42
2023/09/26 01:32:08;;;;;;;;;;;15.50;99.90;;;;;;5116061;28;19930;-41
2023/09/26 01:34:34;;;;;;;;;;;15.50;99.90;;;;;;5116195;28;20275;-41
2023/09/26 01:37:00;;;;;;;;;;;15.40;99.90;;;;;;5116307;28;20286;-41
2023/09/26 01:39:25;;;;;;;;;;;15.30;99.90;;;;;;5116322;28;20305;-41
2023/09/26 01:41:51;;;;;;;;;;;15.30;99.90;;;;;;5116283;28;20426;-41
2023/09/26 01:44:16;;;;;;;;;;;15.30;99.90;;;;;;5116037;28;19973;-41
2023/09/26 01:46:42;;;;;;;;;;;15.30;99.90;;;;;;5115828;28;19927;-41
2023/09/26 01:49:07;;;;;;;;;;;15.30;99.90;;;;;;5115839;28;19924;-41
2023/09/26 01:51:33;;;;;;;;;;;15.20;99.90;;;;;;5115657;28;19924;-41
2023/09/26 01:53:59;;;;;;;;;;;15.20;99.90;;;;;;5114767;28;19924;-41
2023/09/26 01:56:24;;;;;;;;;;;15.20;99.90;;;;;;5115764;28;19924;-41
2023/09/26 01:58:50;;;;;;;;;;;15.20;99.90;;;;;;5115902;28;19930;-41
2023/09/26 02:01:15;;;;;;;;;;;15.20;99.90;;;;;;5115756;28;20340;-41
2023/09/26 02:03:41;;;;;;;;;;;15.20;99.90;;;;;;5115655;28;20080;-41
2023/09/26 02:06:06;;;;;;;;;;;15.10;99.90;;;;;;5115715;28;19947;-41
2023/09/26 02:08:32;;;;;;;;;;;15.20;99.90;;;;;;5115677;28;20260;-42
2023/09/26 02:10:57;;;;;;;;;;;15.10;99.90;;;;;;5115679;28;20260;-41
2023/09/26 02:13:24;;;;;;;;;;;15.10;99.90;;;;;;5115570;28;20401;-41
2023/09/26 02:15:50;;;;;;;;;;;15.10;99.90;;;;;;5115385;28;20401;-41
2023/09/26 02:18:16;;;;;;;;;;;15.10;99.90;;;;;;5115322;28;20020;-42
2023/09/26 02:20:41;;;;;;;;;;;15.10;99.90;;;;;;5115374;28;19924;-41
2023/09/26 02:23:07;;;;;;;;;;;15.10;99.90;;;;;;5115371;28;19923;-41
2023/09/26 02:25:32;;;;;;;;;;;15.10;99.90;;;;;;5115371;28;19974;-41
2023/09/26 02:27:58;;;;;;;;;;;15.10;99.90;;;;;;5115298;28;19969;-41
2023/09/26 02:30:24;;;;;;;;;;;15.10;99.90;;;;;;5115219;28;19977;-41
2023/09/26 02:32:50;;;;;;;;;;;15.10;99.90;;;;;;5115184;28;19924;-41
2023/09/26 02:35:16;;;;;;;;;;;15.10;99.90;;;;;;5115221;28;20386;-41
2023/09/26 02:37:42;;;;;;;;;;;15.10;99.90;;;;;;5115187;28;19931;-41
2023/09/26 02:40:10;;;;;;;;;;;15.10;99.90;;;;;;5115060;28;19930;-41
2023/09/26 02:42:37;;;;;;;;;;;15.10;99.90;;;;;;5114115;28;19970;-42
2023/09/26 02:45:03;;;;;;;;;;;15.00;99.90;;;;;;5114678;28;19931;-41
2023/09/26 02:47:28;;;;;;;;;;;15.00;99.90;;;;;;5114749;28;20367;-41
2023/09/26 02:49:54;;;;;;;;;;;14.90;99.90;;;;;;5114856;28;19924;-42
2023/09/26 02:52:20;;;;;;;;;;;14.90;99.90;;;;;;5114782;28;19984;-41
2023/09/26 02:54:45;;;;;;;;;;;14.90;99.90;;;;;;5114621;28;19976;-41
2023/09/26 02:57:11;;;;;;;;;;;14.90;99.90;;;;;;5114456;28;19924;-42
2023/09/26 02:59:37;;;;;;;;;;;14.90;99.90;;;;;;5113582;28;19924;-41
2023/09/26 03:02:02;;;;;;;;;;;14.90;99.90;;;;;;5114403;28;19935;-41
2023/09/26 03:04:28;;;;;;;;;;;14.90;99.90;;;;;;5114454;28;19924;-41
2023/09/26 03:06:54;;;;;;;;;;;14.80;99.90;;;;;;5114435;28;19932;-42
2023/09/26 03:09:19;;;;;;;;;;;14.80;99.90;;;;;;5114251;28;20381;-41
2023/09/26 03:11:45;;;;;;;;;;;14.80;99.90;;;;;;5114368;28;20380;-41
2023/09/26 03:14:10;;;;;;;;;;;14.70;99.90;;;;;;5114365;28;20431;-41
2023/09/26 03:16:36;;;;;;;;;;;14.70;99.90;;;;;;5114214;28;19928;-41
2023/09/26 03:19:01;;;;;;;;;;;14.70;99.90;;;;;;5114145;28;19985;-41
2023/09/26 03:21:27;;;;;;;;;;;14.60;99.90;;;;;;5114297;28;19930;-42
2023/09/26 03:23:53;;;;;;;;;;;14.60;99.90;;;;;;5114174;28;19924;-41
2023/09/26 03:26:18;;;;;;;;;;;14.60;99.90;;;;;;5114806;28;19975;-41
2023/09/26 03:28:44;;;;;;;;;;;14.60;99.90;;;;;;5114365;28;19924;-42
2023/09/26 03:31:09;;;;;;;;;;;14.60;99.90;;;;;;5114490;28;19924;-42
2023/09/26 03:33:35;;;;;;;;;;;14.60;99.90;;;;;;5114208;28;20407;-42
2023/09/26 03:36:03;;;;;;;;;;;14.50;99.90;;;;;;5114399;28;19923;-41
2023/09/26 03:38:29;;;;;;;;;;;14.50;99.90;;;;;;5114223;28;19931;-41
2023/09/26 03:41:01;;;;;;;;;;;14.50;99.90;;;;;;5114245;28;20472;-42
2023/09/26 03:43:27;;;;;;;;;;;14.50;99.90;;;;;;5114247;28;20289;-41
2023/09/26 03:46:06;;;;;;;;;;;14.50;99.90;;;;;;5113875;28;20018;-41
2023/09/26 03:48:32;;;;;;;;;;;14.50;99.90;;;;;;5114479;28;20021;-41
2023/09/26 03:51:08;;;;;;;;;;;14.50;99.90;;;;;;5114101;28;19924;-41
2023/09/26 03:53:34;;;;;;;;;;;14.40;99.90;;;;;;5115346;28;19924;-41
2023/09/26 03:56:00;;;;;;;;;;;14.30;99.90;;;;;;5118250;28;19930;-41
2023/09/26 03:58:25;;;;;;;;;;;14.30;99.90;;;;;;5117947;28;19923;-41
2023/09/26 04:00:51;;;;;;;;;;;14.20;99.90;;;;;;5118191;28;19977;-42
2023/09/26 04:03:16;;;;;;;;;;;14.20;99.90;;;;;;5118319;28;19927;-42
2023/09/26 04:05:46;;;;;;;;;;;14.10;99.90;;;;;;5117952;28;20336;-41
2023/09/26 04:08:13;;;;;;;;;;;14.10;99.90;;;;;;5117866;28;19923;-41
2023/09/26 04:10:38;;;;;;;;;;;14.00;99.90;;;;;;5116978;28;19931;-41
2023/09/26 04:13:04;;;;;;;;;;;14.00;99.90;;;;;;5117796;28;20027;-42
2023/09/26 04:15:30;;;;;;;;;;;14.00;99.90;;;;;;5117944;28;20358;-41
2023/09/26 04:17:56;;;;;;;;;;;13.90;99.90;;;;;;5117930;28;19931;-42
2023/09/26 04:20:22;;;;;;;;;;;13.90;99.90;;;;;;5117794;28;19928;-41
2023/09/26 04:22:48;;;;;;;;;;;13.90;99.90;;;;;;5116769;28;19946;-41
2023/09/26 04:25:14;;;;;;;;;;;13.90;99.90;;;;;;5117584;28;19924;-42
2023/09/26 04:27:40;;;;;;;;;;;13.90;99.90;;;;;;5116303;28;20069;-41
2023/09/26 04:30:06;;;;;;;;;;;13.90;99.90;;;;;;5117649;28;19924;-41
2023/09/26 04:32:32;;;;;;;;;;;13.80;99.90;;;;;;5117561;27;20394;-41
2023/09/26 04:34:57;;;;;;;;;;;13.80;99.90;;;;;;5117428;28;19931;-41
2023/09/26 04:37:23;;;;;;;;;;;13.80;99.90;;;;;;5117389;28;20354;-41
2023/09/26 04:39:48;;;;;;;;;;;13.80;99.90;;;;;;5117267;28;19977;-41
2023/09/26 04:42:14;;;;;;;;;;;13.70;99.90;;;;;;5117336;28;19923;-41
2023/09/26 04:44:40;;;;;;;;;;;13.70;99.90;;;;;;5117792;28;20019;-41
2023/09/26 04:47:05;;;;;;;;;;;13.60;99.90;;;;;;5117742;28;19977;-41
2023/09/26 04:49:32;;;;;;;;;;;13.60;99.90;;;;;;5116017;28;20283;-41
2023/09/26 04:51:57;;;;;;;;;;;13.60;99.90;;;;;;5115790;28;20413;-41
2023/09/26 04:54:23;;;;;;;;;;;13.60;99.90;;;;;;5117237;28;19923;-42
2023/09/26 04:56:48;;;;;;;;;;;13.50;99.90;;;;;;5116974;28;19924;-43
2023/09/26 04:59:14;;;;;;;;;;;13.50;99.90;;;;;;5117065;28;20480;-42
2023/09/26 05:01:40;;;;;;;;;;;13.50;99.90;;;;;;5117028;28;19924;-41
2023/09/26 05:04:05;;;;;;;;;;;13.50;99.90;;;;;;5115746;28;20001;-41
2023/09/26 05:06:31;;;;;;;;;;;13.50;99.90;;;;;;5115700;28;19977;-42
2023/09/26 05:08:56;;;;;;;;;;;13.50;99.90;;;;;;5116767;28;20016;-41
2023/09/26 05:11:22;;;;;;;;;;;13.50;99.90;;;;;;5116343;28;19936;-41
2023/09/26 05:13:48;;;;;;;;;;;13.50;99.90;;;;;;5116517;28;19931;-41
2023/09/26 05:16:14;;;;;;;;;;;13.60;99.90;;;;;;5116652;28;19930;-41
2023/09/26 05:18:40;;;;;;;;;;;13.60;99.90;;;;;;5115780;28;20022;-41
2023/09/26 05:21:06;;;;;;;;;;;13.60;99.90;;;;;;5115541;28;20343;-41
2023/09/26 05:23:31;;;;;;;;;;;13.60;99.90;;;;;;5116478;28;19923;-40
2023/09/26 05:26:06;;;;;;;;;;;13.50;99.90;;;;;;5116376;28;19931;-41
2023/09/26 05:28:32;;;;;;;;;;;13.50;99.90;;;;;;5116351;28;19946;-40
2023/09/26 05:30:58;;;;;;;;;;;13.50;99.90;;;;;;5116359;28;20374;-40
2023/09/26 05:33:23;;;;;;;;;;;13.50;99.90;;;;;;5116358;28;20255;-40
2023/09/26 05:35:49;;;;;;;;;;;13.50;99.90;;;;;;5116284;28;19931;-40
2023/09/26 05:38:15;;;;;;;;;;;13.50;99.90;;;;;;5116200;28;19931;-40
2023/09/26 05:40:40;;;;;;;;;;;13.50;99.90;;;;;;5115976;28;19924;-41
2023/09/26 05:43:06;;;;;;;;;;;13.40;99.90;;;;;;5116231;28;20007;-40
2023/09/26 05:45:31;;;;;;;;;;;13.40;99.90;;;;;;5116101;28;20274;-40
2023/09/26 05:47:57;;;;;;;;;;;13.40;99.90;;;;;;5116067;28;19923;-40
2023/09/26 05:50:23;;;;;;;;;;;13.40;99.90;;;;;;5114568;28;19931;-41
2023/09/26 05:52:49;;;;;;;;;;;13.40;99.90;;;;;;5115985;28;19924;-40
2023/09/26 05:55:14;;;;;;;;;;;13.40;99.90;;;;;;5115629;27;20392;-41
2023/09/26 05:57:40;;;;;;;;;;;13.30;99.90;;;;;;5115827;28;19923;-40
2023/09/26 06:00:11;;;;;;;;;;;13.40;99.90;;;;;;5115777;28;19924;-40
2023/09/26 06:02:37;;;;;;;;;;;13.40;99.90;;;;;;5115861;28;19923;-40
2023/09/26 06:05:05;;;;;;;;;;;13.40;99.90;;;;;;5115571;28;20428;-40
2023/09/26 06:07:31;;;;;;;;;;;13.40;99.90;;;;;;5115455;28;20015;-40
2023/09/26 06:09:58;;;;;;;;;;;13.30;99.90;;;;;;5115284;28;20306;-41
2023/09/26 06:12:24;;;;;;;;;;;13.30;99.90;;;;;;5115596;28;19976;-40
2023/09/26 06:14:50;;;;;;;;;;;13.40;99.90;;;;;;5115275;28;19928;-41
2023/09/26 06:17:16;;;;;;;;;;;13.40;99.90;;;;;;5115046;28;20386;-40
2023/09/26 06:19:46;;;;;;;;;;;13.40;99.90;;;;;;5115282;28;19924;-40
2023/09/26 06:22:12;;;;;;;;;;;13.40;99.90;;;;;;5115232;27;20078;-41
2023/09/26 06:24:37;;;;;;;;;;;13.40;99.90;;;;;;5115468;28;19923;-41
2023/09/26 06:27:03;;;;;;;;;;;13.40;99.90;;;;;;5115235;28;19978;-41
2023/09/26 06:29:29;;;;;;;;;;;13.50;99.90;;;;;;5115201;28;19923;-41
2023/09/26 06:31:54;;;;;;;;;;;13.50;99.90;;;;;;5115445;28;19924;-41
2023/09/26 06:34:20;;;;;;;;;;;13.50;99.90;;;;;;5115114;28;20390;-41
2023/09/26 06:36:48;;;;;;;;;;;13.60;99.90;;;;;;5115099;28;20286;-41
2023/09/26 06:39:14;;;;;;;;;;;13.60;99.90;;;;;;5114933;28;20028;-41
2023/09/26 06:41:40;;;;;;;;;;;13.70;99.90;;;;;;5113889;28;20022;-41
2023/09/26 06:44:06;;;;;;;;;;;13.70;99.90;;;;;;5115031;28;19923;-41
2023/09/26 06:46:32;;;;;;;;;;;13.70;99.90;;;;;;5113734;28;20549;-41
2023/09/26 06:48:57;;;;;;;;;;;13.80;99.90;;;;;;5114952;28;20014;-41
2023/09/26 06:51:24;;;;;;;;;;;13.80;99.90;;;;;;5114453;28;20015;-42
2023/09/26 06:53:49;;;;;;;;;;;13.90;99.90;;;;;;5115270;28;19931;-41
2023/09/26 06:56:15;;;;;;;;;;;14.00;99.90;;;;;;5114903;28;20294;-41
2023/09/26 06:58:40;;;;;;;;;;;14.00;99.90;;;;;;5114741;28;19977;-41
2023/09/26 07:01:14;;;;;;;;;;;14.10;99.90;;;;;;5113487;28;19931;-41
2023/09/26 07:03:39;;;;;;;;;;;14.10;99.90;;;;;;5114705;28;19931;-41
2023/09/26 07:06:10;;;;;;;;;;;14.10;99.90;;;;;;5130835;27;19924;-41
2023/09/26 07:08:36;;;;;;;;;;;14.20;99.90;;;;;;5114656;28;20025;-41
2023/09/26 07:11:05;;;;;;;;;;;14.20;99.90;;;;;;5114586;28;20010;-41
2023/09/26 07:13:31;;;;;;;;;;;14.30;99.90;;;;;;5114627;28;19931;-40
2023/09/26 07:16:00;;;;;;;;;;;14.30;99.90;;;;;;5114927;28;20374;-41
2023/09/26 07:18:26;;;;;;;;;;;14.30;99.90;;;;;;5114484;28;19923;-41
2023/09/26 07:20:52;;;;;;;;;;;14.40;99.90;;;;;;5114316;28;19928;-41
2023/09/26 07:23:17;;;;;;;;;;;14.50;99.90;;;;;;5114459;28;19931;-40
2023/09/26 07:25:43;;;;;;;;;;;14.50;99.90;;;;;;5113335;28;20294;-41
2023/09/26 07:28:08;;;;;;;;;;;14.50;99.90;;;;;;5114771;28;20287;-41
2023/09/26 07:30:34;;;;;;;;;;;14.60;99.90;;;;;;5118588;28;19924;-40
2023/09/26 07:33:00;;;;;;;;;;;14.60;99.90;;;;;;5118620;28;19923;-41
2023/09/26 07:35:27;;;;;;;;;;;14.70;99.90;;;;;;5118390;28;19930;-41
2023/09/26 07:37:53;;;;;;;;;;;14.70;99.90;;;;;;5118644;28;20281;-40
2023/09/26 07:40:19;;;;;;;;;;;14.80;99.90;;;;;;5118618;28;20019;-41
2023/09/26 07:42:44;;;;;;;;;;;14.80;99.90;;;;;;5118488;28;20282;-40
2023/09/26 07:45:10;;;;;;;;;;;14.80;99.90;;;;;;5118358;28;19924;-41
2023/09/26 07:47:36;;;;;;;;;;;14.90;99.90;;;;;;5118252;28;19923;-41
2023/09/26 07:50:02;;;;;;;;;;;14.90;99.90;;;;;;5117065;28;19934;-41
2023/09/26 07:52:28;;;;;;;;;;;15.00;99.90;;;;;;5118624;28;19924;-41
2023/09/26 07:54:54;;;;;;;;;;;15.00;99.90;;;;;;5117458;28;19923;-41
2023/09/26 07:57:20;;;;;;;;;;;15.00;99.90;;;;;;5118656;28;20267;-41
2023/09/26 07:59:46;;;;;;;;;;;15.00;99.90;;;;;;5117980;28;19924;-40
2023/09/26 08:02:12;;;;;;;;;;;15.00;99.90;;;;;;5118034;28;20020;-41
2023/09/26 08:04:38;;;;;;;;;;;15.10;99.90;;;;;;5118072;28;19971;-41
2023/09/26 08:07:04;;;;;;;;;;;15.10;99.90;;;;;;5118104;28;19931;-41
2023/09/26 08:09:29;;;;;;;;;;;15.20;99.90;;;;;;5118048;28;19930;-41
2023/09/26 08:11:55;;;;;;;;;;;15.30;99.90;;;;;;5117966;27;19924;-41
2023/09/26 08:14:21;;;;;;;;;;;15.30;99.90;;;;;;5117968;28;20036;-41
2023/09/26 08:16:47;;;;;;;;;;;15.30;99.90;;;;;;5116854;28;19928;-41
2023/09/26 08:19:12;;;;;;;;;;;15.40;99.90;;;;;;5117528;28;20382;-41
2023/09/26 08:21:39;;;;;;;;;;;15.40;99.90;;;;;;5117780;28;19931;-41
2023/09/26 08:24:05;;;;;;;;;;;15.50;99.90;;;;;;5116742;28;20014;-42
2023/09/26 08:26:31;;;;;;;;;;;15.50;99.90;;;;;;5117598;28;20006;-40
2023/09/26 08:28:56;;;;;;;;;;;15.60;99.90;;;;;;5117390;28;20436;-41
2023/09/26 08:31:22;;;;;;;;;;;15.70;99.90;;;;;;5117515;28;19971;-41
2023/09/26 08:33:49;;;;;;;;;;;15.70;99.90;;;;;;5117258;28;19927;-41
2023/09/26 08:36:19;;;;;;;;;;;15.70;99.90;;;;;;5117580;28;20018;-40
2023/09/26 08:38:48;;;;;;;;;;;15.80;99.90;;;;;;5116578;28;19963;-41
2023/09/26 08:41:17;;;;;;;;;;;15.80;99.90;;;;;;5117404;28;20267;-41
2023/09/26 08:43:43;;;;;;;;;;;15.90;99.90;;;;;;5117301;28;19924;-41
2023/09/26 08:46:09;;;;;;;;;;;15.90;99.90;;;;;;5117246;28;20371;-41
2023/09/26 08:48:35;;;;;;;;;;;15.90;99.90;;;;;;5117007;28;19930;-40
2023/09/26 08:51:01;;;;;;;;;;;15.90;99.90;;;;;;5116937;28;20385;-41
2023/09/26 08:53:26;;;;;;;;;;;16.00;99.90;;;;;;5117096;28;19924;-41
2023/09/26 08:55:52;;;;;;;;;;;16.00;99.90;;;;;;5117146;28;19981;-40
2023/09/26 08:58:19;;;;;;;;;;;16.00;99.90;;;;;;5116806;28;20397;-41
2023/09/26 09:00:45;;;;;;;;;;;16.00;99.90;;;;;;5116843;28;19969;-41
2023/09/26 09:03:10;;;;;;;;;;;16.10;99.90;;;;;;5117471;28;19924;-41
2023/09/26 09:05:36;;;;;;;;;;;16.10;99.90;;;;;;5115724;28;19924;-41
2023/09/26 09:08:02;;;;;;;;;;;16.20;99.90;;;;;;5116735;28;20307;-41
2023/09/26 09:10:28;;;;;;;;;;;16.20;99.90;;;;;;5116875;28;19923;-41
2023/09/26 09:13:03;;;;;;;;;;;16.20;99.90;;;;;;5117105;28;19968;-41
2023/09/26 09:15:29;;;;;;;;;;;16.30;99.90;;;;;;5116480;28;19924;-41
2023/09/26 09:17:55;;;;;;;;;;;16.30;99.90;;;;;;5116763;28;19923;-41
2023/09/26 09:20:27;;;;;;;;;;;16.40;99.90;;;;;;5116693;28;19923;-40
2023/09/26 09:23:04;;;;;;;;;;;16.50;99.90;;;;;;5116606;28;19949;-41
2023/09/26 09:25:36;;;;;;;;;;;16.50;99.90;;;;;;5116622;27;20019;-40
2023/09/26 09:28:03;;;;;;;;;;;16.50;99.90;;;;;;5116437;28;19934;-41
2023/09/26 09:30:29;;;;;;;;;;;16.60;99.90;;;;;;5116879;28;19924;-41
2023/09/26 09:32:55;;;;;;;;;;;16.70;99.90;;;;;;5116483;28;20320;-41
2023/09/26 09:35:22;;;;;;;;;;;16.80;99.90;;;;;;5116206;28;20382;-41
2023/09/26 09:37:49;;;;;;;;;;;16.80;99.90;;;;;;5116536;28;20002;-41
2023/09/26 09:40:19;;;;;;;;;;;16.80;99.90;;;;;;5116266;28;19974;-41
2023/09/26 09:42:48;;;;;;;;;;;16.90;99.90;;;;;;5116113;28;19924;-41
2023/09/26 09:45:14;;;;;;;;;;;16.80;99.90;;;;;;5116238;28;20279;-41
2023/09/26 09:47:42;;;;;;;;;;;16.90;99.90;;;;;;5116360;28;19924;-42
2023/09/26 09:50:08;;;;;;;;;;;16.90;99.90;;;;;;5115932;28;19924;-41
2023/09/26 09:52:34;;;;;;;;;;;16.90;99.90;;;;;;5114172;28;19924;-41
2023/09/26 09:55:02;;;;;;;;;;;17.10;99.90;;;;;;5115839;28;19979;-41
2023/09/26 09:57:32;;;;;;;;;;;17.20;99.90;;;;;;5115940;28;19931;-41
2023/09/26 09:59:58;;;;;;;;;;;17.30;99.90;;;;;;5114944;28;20385;-41
2023/09/26 10:02:24;;;;;;;;;;;17.40;99.90;;;;;;5115744;28;20013;-42
2023/09/26 10:04:55;;;;;;;;;;;17.40;99.90;;;;;;5115675;28;19924;-41
2023/09/26 10:07:23;;;;;;;;;;;17.60;99.90;;;;;;5115626;28;19924;-40
2023/09/26 10:09:50;;;;;;;;;;;17.70;99.90;;;;;;5115374;28;20275;-41
2023/09/26 10:12:15;;;;;;;;;;;17.80;99.90;;;;;;5115435;28;20408;-41
2023/09/26 10:14:41;;;;;;;;;;;17.80;99.90;;;;;;5115852;28;19924;-41
2023/09/26 10:17:07;;;;;;;;;;;17.80;99.90;;;;;;5115498;28;19923;-41
2023/09/26 10:19:33;;;;;;;;;;;17.80;99.90;;;;;;5115746;28;20438;-41
2023/09/26 10:22:17;;;;;;;;;;;17.80;99.90;;;;;;5115214;28;20275;-40
2023/09/26 10:24:47;;;;;;;;;;;17.90;99.90;;;;;;5115500;28;20086;-41
2023/09/26 10:27:12;;;;;;;;;;;17.90;99.90;;;;;;5115275;28;19935;-41
2023/09/26 10:29:38;;;;;;;;;;;18.00;99.90;;;;;;5114000;28;19924;-41
2023/09/26 10:32:07;;;;;;;;;;;18.00;99.90;;;;;;5115163;28;19923;-41
2023/09/26 10:34:34;;;;;;;;;;;18.10;99.90;;;;;;5115048;28;20026;-41
2023/09/26 10:36:59;;;;;;;;;;;18.10;99.90;;;;;;5115198;28;19923;-41
2023/09/26 10:39:32;;;;;;;;;;;18.10;99.90;;;;;;5115170;28;19969;-41
2023/09/26 10:42:18;;;;;;;;;;;18.20;99.90;;;;;;5113924;28;19923;-41
2023/09/26 10:44:45;;;;;;;;;;;18.30;99.90;;;;;;5113974;28;20359;-41
2023/09/26 10:47:12;;;;;;;;;;;18.40;99.90;;;;;;5114847;28;20401;-41
2023/09/26 10:49:37;;;;;;;;;;;18.40;99.90;;;;;;5114722;28;19924;-41
2023/09/26 10:52:05;;;;;;;;;;;18.40;99.90;;;;;;5114548;28;20019;-41
2023/09/26 10:54:33;;;;;;;;;;;18.40;99.90;;;;;;5114854;28;19923;-42
2023/09/26 10:57:00;;;;;;;;;;;18.40;99.90;;;;;;5114751;28;19930;-42
2023/09/26 10:59:29;;;;;;;;;;;18.40;99.90;;;;;;5113484;28;19931;-41
2023/09/26 11:01:58;;;;;;;;;;;18.40;99.90;;;;;;5114620;28;19976;-41
2023/09/26 11:04:27;;;;;;;;;;;18.50;99.90;;;;;;5113860;28;19930;-41
2023/09/26 11:06:53;;;;;;;;;;;18.50;99.90;;;;;;5114700;28;19927;-41
2023/09/26 11:09:18;;;;;;;;;;;18.60;99.90;;;;;;5114632;28;19930;-41
2023/09/26 11:11:44;;;;;;;;;;;18.50;99.90;;;;;;5114489;28;19974;-41
2023/09/26 11:14:09;;;;;;;;;;;18.60;99.90;;;;;;5114626;28;19946;-41
2023/09/26 11:16:35;;;;;;;;;;;18.60;99.90;;;;;;5114606;28;20354;-41
2023/09/26 11:19:00;;;;;;;;;;;18.60;99.90;;;;;;5114572;28;19931;-41
2023/09/26 11:21:26;;;;;;;;;;;18.60;99.90;;;;;;5114481;28;20010;-41
2023/09/26 11:23:52;;;;;;;;;;;18.60;99.90;;;;;;5114349;28;19931;-42
2023/09/26 11:26:17;;;;;;;;;;;18.60;99.90;;;;;;5114421;28;20011;-43
2023/09/26 11:28:43;;;;;;;;;;;18.60;99.90;;;;;;5114234;28;19924;-44
2023/09/26 11:31:08;;;;;;;;;;;18.60;99.90;;;;;;5114346;28;19924;-43
2023/09/26 11:33:34;;;;;;;;;;;18.60;99.90;;;;;;5114292;28;19971;-43
2023/09/26 11:36:01;;;;;;;;;;;18.60;99.90;;;;;;5114306;28;19967;-43
2023/09/26 11:38:26;;;;;;;;;;;18.60;99.90;;;;;;5113668;28;19932;-43
2023/09/26 11:40:53;;;;;;;;;;;18.60;99.90;;;;;;5114153;28;19934;-42
2023/09/26 11:43:19;;;;;;;;;;;18.70;99.90;;;;;;5114250;28;19931;-42
2023/09/26 11:45:45;;;;;;;;;;;18.70;99.90;;;;;;5114331;28;19924;-42
2023/09/26 11:48:10;;;;;;;;;;;18.70;99.90;;;;;;5114505;28;19924;-42
2023/09/26 11:50:36;;;;;;;;;;;18.70;99.90;;;;;;5114140;28;19924;-42
2023/09/26 11:53:01;;;;;;;;;;;18.70;99.90;;;;;;5112914;28;19931;-42
2023/09/26 11:55:27;;;;;;;;;;;18.70;99.90;;;;;;5113322;28;19973;-42
2023/09/26 11:57:53;;;;;;;;;;;18.70;99.90;;;;;;5114185;28;19924;-42
2023/09/26 12:00:20;;;;;;;;;;;18.70;99.90;;;;;;5112781;28;19959;-42
2023/09/26 12:02:46;;;;;;;;;;;18.70;99.90;;;;;;5114256;28;19924;-42
2023/09/26 12:05:15;;;;;;;;;;;18.80;99.90;;;;;;5113908;28;19934;-42
2023/09/26 12:07:43;;;;;;;;;;;18.80;99.90;;;;;;5114050;28;20434;-43
2023/09/26 12:10:09;;;;;;;;;;;18.80;99.90;;;;;;5114166;28;19936;-42
2023/09/26 12:12:35;;;;;;;;;;;18.90;99.90;;;;;;5114034;28;19949;-42
2023/09/26 12:15:22;;;;;;;;;;;18.90;99.90;;;;;;5114598;28;19923;-42
2023/09/26 12:17:52;;;;;;;;;;;19.00;99.90;;;;;;5117866;28;20398;-42
2023/09/26 12:20:21;;;;;;;;;;;19.00;99.90;;;;;;5118110;28;19924;-42
2023/09/26 12:22:50;;;;;;;;;;;19.10;99.90;;;;;;5117818;27;19924;-42
2023/09/26 12:25:16;;;;;;;;;;;19.10;99.90;;;;;;5117587;28;19931;-42
2023/09/26 12:27:42;;;;;;;;;;;19.20;99.90;;;;;;5117791;28;19932;-42
2023/09/26 12:30:08;;;;;;;;;;;19.20;99.90;;;;;;5117539;28;19923;-42
2023/09/26 12:32:33;;;;;;;;;;;19.30;99.90;;;;;;5117634;28;19928;-42
2023/09/26 12:34:59;;;;;;;;;;;19.30;99.90;;;;;;5116565;28;19931;-41
2023/09/26 12:37:24;;;;;;;;;;;19.30;99.90;;;;;;5117411;28;19931;-43
2023/09/26 12:39:50;;;;;;;;;;;19.40;99.90;;;;;;5117379;28;19924;-42
2023/09/26 12:42:16;;;;;;;;;;;19.40;99.90;;;;;;5117147;28;19927;-41
2023/09/26 12:44:41;;;;;;;;;;;19.50;99.90;;;;;;5117331;28;19924;-42
2023/09/26 12:47:07;;;;;;;;;;;19.50;99.90;;;;;;5117592;28;19931;-42
2023/09/26 12:49:33;;;;;;;;;;;19.50;99.90;;;;;;5117223;28;19928;-41
2023/09/26 12:51:59;;;;;;;;;;;19.50;99.90;;;;;;5115990;28;20019;-41
2023/09/26 12:54:25;;;;;;;;;;;19.50;99.90;;;;;;5117104;28;19924;-41
2023/09/26 12:56:51;;;;;;;;;;;19.50;99.90;;;;;;5116886;28;19928;-42
2023/09/26 12:59:17;;;;;;;;;;;19.50;99.90;;;;;;5116140;28;19969;-41
2023/09/26 13:01:42;;;;;;;;;;;19.60;99.90;;;;;;5117084;28;19974;-41
2023/09/26 13:04:08;;;;;;;;;;;19.60;99.90;;;;;;5117070;27;19924;-41
2023/09/26 13:06:33;;;;;;;;;;;19.70;99.90;;;;;;5117322;28;19930;-41
2023/09/26 13:08:59;;;;;;;;;;;19.70;99.90;;;;;;5116860;28;20491;-41
2023/09/26 13:11:25;;;;;;;;;;;19.70;99.90;;;;;;5116530;28;19930;-41
2023/09/26 13:13:50;;;;;;;;;;;19.70;99.90;;;;;;5116864;28;20016;-41
2023/09/26 13:16:16;;;;;;;;;;;19.80;99.90;;;;;;5116532;28;19924;-41
2023/09/26 13:18:42;;;;;;;;;;;19.80;99.90;;;;;;5116753;28;19924;-41
2023/09/26 13:21:07;;;;;;;;;;;19.90;99.90;;;;;;5116667;28;19923;-41
2023/09/26 13:23:33;;;;;;;;;;;20.00;99.90;;;;;;5116638;28;19924;-41
2023/09/26 13:25:59;;;;;;;;;;;19.90;99.90;;;;;;5115677;28;20019;-41
2023/09/26 13:28:25;;;;;;;;;;;19.90;99.90;;;;;;5117016;28;19970;-41
2023/09/26 13:30:51;;;;;;;;;;;19.90;99.90;;;;;;5116898;28;19951;-42
2023/09/26 13:33:18;;;;;;;;;;;19.90;99.90;;;;;;5115428;28;20398;-41
2023/09/26 13:35:44;;;;;;;;;;;20.00;99.90;;;;;;5116378;28;19976;-41
2023/09/26 13:38:10;;;;;;;;;;;20.00;99.90;;;;;;5116314;28;20418;-41
2023/09/26 13:40:35;;;;;;;;;;;20.10;99.90;;;;;;5116065;28;19975;-41
2023/09/26 13:43:01;;;;;;;;;;;20.00;99.90;;;;;;5115041;28;19924;-41
2023/09/26 13:45:27;;;;;;;;;;;20.00;99.90;;;;;;5116550;28;19931;-41
2023/09/26 13:47:52;;;;;;;;;;;19.90;99.90;;;;;;5116230;28;20290;-41
2023/09/26 13:50:18;;;;;;;;;;;19.90;99.90;;;;;;5115882;28;19924;-41
2023/09/26 13:52:43;;;;;;;;;;;19.80;99.90;;;;;;5116140;28;19923;-41
2023/09/26 13:55:11;;;;;;;;;;;19.70;99.90;;;;;;5115825;27;19924;-41
2023/09/26 13:57:37;;;;;;;;;;;19.70;99.90;;;;;;5116022;28;19930;-41
2023/09/26 14:00:02;;;;;;;;;;;19.70;99.90;;;;;;5115926;28;20022;-41
2023/09/26 14:02:28;;;;;;;;;;;19.60;99.90;;;;;;5115944;28;20335;-41
2023/09/26 14:04:53;;;;;;;;;;;19.60;99.90;;;;;;5115750;28;20023;-41
2023/09/26 14:07:20;;;;;;;;;;;19.60;99.90;;;;;;5115637;28;19924;-41
2023/09/26 14:09:46;;;;;;;;;;;19.60;99.90;;;;;;5115480;28;19924;-41
2023/09/26 14:12:11;;;;;;;;;;;19.60;99.90;;;;;;5115905;28;19924;-41